Flight Track Log - Related Links

Times and Time Zones

All times are in EDT time to prevent confusion due to time zone crossing. See the N135SH flight status page for this flight to view local times or setup timezone preferences in your user account.

Time Position Orientation Groundspeed Altitude Reporting Facility
EDT Latitude Longitude Course Direction KTS MPH feet Rate Location/Type
Thu 03:02:05 PM 38.7289 -104.7178 104° East 262 302 8,900  Level Denver Center
Thu 03:05:11 PM 38.5906 -104.4142 102° East 386 444 14,200 1,573 Climbing Denver Center
Thu 03:06:13 PM 38.5756 -104.2750 98° East 403 464 15,400 968 Climbing Denver Center
Thu 03:07:00 PM 38.4937 -103.6518 104° East  Level FlightAware Approximate
Thu 03:07:15 PM 38.5608 -104.0972 96° East 437 503 16,200  Level Denver Center
Thu 03:08:17 PM 38.5447 -103.9417 97° East 455 524 17,700 1,561 Climbing Denver Center
Thu 03:09:18 PM 38.5239 -103.7608 98° East 458 527 19,400 1,512 Climbing Denver Center
Thu 03:10:20 PM 38.4981 -103.6108 102° East 456 525 20,800 1,306 Climbing Denver Center
Thu 03:11:00 PM 38.5349 -103.3002 102° East  Level Estimated
Thu 03:11:22 PM 38.4731 -103.4569 102° East 456 525 22,100  Level Denver Center
Thu 03:12:24 PM 38.4442 -103.2764 101° East 459 528 23,600 1,306 Climbing Denver Center
Thu 03:13:26 PM 38.4142 -103.1200 104° East 471 542 24,800 1,309 Climbing Denver Center
Thu 03:15:09 PM 38.3419 -102.8361 108° East 477 549 27,200 1,309 Climbing Kansas City Center
Thu 03:16:11 PM 38.3072 -102.6778 106° East 480 552 28,400 1,258 Climbing Kansas City Center
Thu 03:17:13 PM 38.2753 -102.4878 102° East 486 559 29,800 1,306 Climbing Kansas City Center
Thu 03:18:15 PM 38.2453 -102.3267 103° East 487 560 31,100 1,306 Climbing Kansas City Center
Thu 03:19:17 PM 38.2111 -102.1394 103° East 488 562 32,500 1,252 Climbing Kansas City Center
Thu 03:21:41 PM 38.1364 -101.7369 96° East 491 565 35,400 1,194 Climbing Denver Center
Thu 03:22:43 PM 38.1064 -101.5775 103° East 487 560 36,600 1,038 Climbing Denver Center
Thu 03:23:25 PM 38.0814 -101.4425 103° East 488 562 37,200 692 Climbing Kansas City Center
Thu 03:24:27 PM 38.0503 -101.2814 104° East 488 562 37,800 768 Climbing Kansas City Center
Thu 03:25:30 PM 38.0133 -101.0911 104° East 493 567 38,800 912 Climbing Kansas City Center
Thu 03:26:32 PM 37.9814 -100.9294 104° East 493 567 39,700 823 Climbing Kansas City Center
Thu 03:27:34 PM 37.9503 -100.7675 104° East 493 567 40,500 484 Climbing Kansas City Center
Thu 03:28:36 PM 37.9139 -100.5811 104° East 488 562 40,700 242 Climbing Kansas City Center
Thu 03:29:38 PM 37.8811 -100.4208 104° East 488 562 41,000 145 Climbing Kansas City Center
Thu 03:30:40 PM 37.8433 -100.2317 104° East 489 563 41,000  Level Kansas City Center
Thu 03:31:42 PM 37.8100 -100.0703 105° East 491 565 41,000  Level Kansas City Center
Thu 03:33:46 PM 37.7383 -99.7181 97° East 495 570 41,000  Level Kansas City Center
Thu 03:34:48 PM 37.6986 -99.5278 105° East 499 574 41,000  Level Kansas City Center
Thu 03:35:50 PM 37.6658 -99.3678 104° East 499 574 41,000  Level Kansas City Center
Thu 03:38:56 PM 37.5558 -98.8606 105° East 502 578 41,000  Level Kansas City Center
Thu 03:39:58 PM 37.5117 -98.6581 105° East 502 578 41,000  Level Kansas City Center
Thu 03:42:03 PM 37.4381 -98.3211 102° East 502 578 41,000  Level Kansas City Center
Thu 03:43:05 PM 37.3994 -98.1533 106° East 503 579 41,000  Level Kansas City Center
Thu 03:47:13 PM 37.2400 -97.4478 107° East 504 580 41,000  Level Kansas City Center
Thu 03:48:15 PM 37.2006 -97.2811 107° East 503 579 41,000  Level Kansas City Center
Thu 03:49:17 PM 37.1611 -97.1125 106° East 503 579 41,000  Level Kansas City Center
Thu 03:50:19 PM 37.1153 -96.9119 106° East 502 578 41,000  Level Kansas City Center
Thu 03:52:00 PM 37.1031 -96.7632 107° East  Level FlightAware Approximate
Thu 03:52:16 PM 37.0381 -96.5794 106° East 505 581 41,000  Level Memphis Center
Thu 03:53:25 PM 36.9975 -96.4094 107° East 503 579 41,000  Level Kansas City Center
Thu 03:54:28 PM 36.9497 -96.2083 107° East 503 579 41,000  Level Kansas City Center
Thu 03:55:30 PM 36.9083 -96.0406 107° East 503 579 41,000  Level Kansas City Center
Thu 03:56:32 PM 36.8681 -95.8733 107° East 502 578 41,000  Level Kansas City Center
Thu 03:57:34 PM 36.8278 -95.7061 107° East 502 578 41,000  Level Kansas City Center
Thu 03:58:36 PM 36.7867 -95.5381 107° East 502 578 41,000  Level Kansas City Center
Thu 03:59:38 PM 36.7447 -95.3703 107° East 502 578 41,000  Level Kansas City Center
Thu 04:00:40 PM 36.7022 -95.2011 107° East 502 578 41,000  Level Kansas City Center
Thu 04:01:42 PM 36.6583 -95.0322 108° East 503 579 41,000  Level Kansas City Center
Thu 04:02:44 PM 36.6164 -94.8667 107° East 503 579 41,000  Level Kansas City Center
Thu 04:03:46 PM 36.5653 -94.6706 108° East 498 573 41,000  Level Kansas City Center
Thu 04:04:48 PM 36.5239 -94.5092 108° East 492 566 41,000  Level Kansas City Center
Thu 04:05:51 PM 36.4825 -94.3514 108° East 485 558 41,000  Level Kansas City Center
Thu 04:06:45 PM 36.4508 -94.2250 107° East 484 557 41,000  Level Memphis Center
Thu 04:07:47 PM 36.4014 -94.0347 108° East 483 556 41,000  Level Memphis Center
Thu 04:09:59 PM 36.3139 -93.7108 108° East 483 556 41,000  Level Kansas City Center
Thu 04:10:54 PM 36.2714 -93.5514 108° East 483 556 41,000  Level Memphis Center
Thu 04:11:56 PM 36.2289 -93.3925 108° East 483 556 41,000  Level Memphis Center
Thu 04:14:00 PM 36.1422 -93.0731 108° East 485 558 41,000  Level Memphis Center
Thu 04:15:02 PM 36.0981 -92.9136 109° East 487 560 41,000  Level Memphis Center
Thu 04:17:00 PM 36.0211 -92.6191 108° East  Level FlightAware Approximate
Thu 04:18:08 PM 35.9556 -92.3992 108° East 490 564 41,000  Level Memphis Center
Thu 04:19:11 PM 35.9114 -92.2411 109° East 490 564 41,000  Level Memphis Center
Thu 04:20:13 PM 35.8658 -92.0819 109° East 490 564 41,000  Level Memphis Center
Thu 04:22:17 PM 35.7761 -91.7636 109° East 490 564 41,000  Level Memphis Center
Thu 04:23:19 PM 35.7214 -91.5758 110° East 490 564 41,000  Level Memphis Center
Thu 04:25:23 PM 35.6275 -91.2478 109° East 490 564 41,000  Level Memphis Center
Thu 04:27:27 PM 35.5347 -90.9342 110° East 490 564 41,000  Level Memphis Center
Thu 04:28:29 PM 35.4883 -90.7783 110° East 490 564 41,000  Level Memphis Center
Thu 04:29:32 PM 35.4428 -90.6228 110° East 489 563 41,000  Level Memphis Center
Thu 04:30:34 PM 35.3919 -90.4575 111° Southeast 489 563 41,000  Level Memphis Center
Thu 04:32:38 PM 35.2994 -90.1506 110° East 490 564 41,000  Level Memphis Center
Thu 04:35:44 PM 35.1428 -89.6364 111° Southeast 499 574 41,000  Level Memphis Center
Thu 04:36:46 PM 35.0925 -89.4753 111° Southeast 499 574 41,000  Level Memphis Center
Thu 04:38:50 PM 34.9917 -89.1544 111° Southeast 501 577 41,000  Level Memphis Center
Thu 04:39:53 PM 34.9308 -88.9647 111° Southeast 501 577 41,000  Level Memphis Center
Thu 04:41:57 PM 34.8314 -88.6481 111° Southeast 501 577 41,000  Level Memphis Center
Thu 04:42:59 PM 34.7811 -88.4908 111° Southeast 501 577 41,000 -48 Level Memphis Center
Thu 04:44:01 PM 34.7250 -88.3144 111° Southeast 501 577 40,900 -484 Descending Memphis Center
Thu 04:45:03 PM 34.6733 -88.1567 112° Southeast 502 578 40,000 -871 Descending Memphis Center
Thu 04:46:05 PM 34.6233 -88.0042 112° Southeast 493 567 39,100 -484 Descending Memphis Center
Thu 04:47:07 PM 34.5711 -87.8428 111° Southeast 476 548 39,000 -48 Descending Memphis Center
Thu 04:48:09 PM 34.5231 -87.6961 112° Southeast 470 541 39,000  Level Memphis Center
Thu 04:49:11 PM 34.4744 -87.5478 112° Southeast 471 542 39,000  Level Memphis Center
Thu 04:50:13 PM 34.4244 -87.3981 112° Southeast 475 547 39,000 -339 Level Memphis Center
Thu 04:51:15 PM 34.3747 -87.2481 112° Southeast 476 548 38,300 -323 Descending Memphis Center
Thu 04:53:19 PM 34.2858 -86.9100 108° East 484 557 38,000 -96 Descending Memphis Center
Thu 04:54:22 PM 34.2717 -86.7475 96° East 486 559 38,000 -240 Level Memphis Center
Thu 04:55:24 PM 34.2347 -86.5908 106° East 485 558 37,500 -1,958 Descending Memphis Center
Thu 04:57:32 PM 34.0831 -86.2661 119° Southeast 490 564 31,800 -2,681 Descending Atlanta Center
Thu 04:58:32 PM 34.0081 -86.1314 124° Southeast 495 570 29,100 -3,300 Descending Atlanta Center
Thu 04:59:32 PM 33.9731 -85.9725 105° East 470 541 25,200 -3,767 Descending Atlanta Center
Thu 05:01:32 PM 33.9736 -85.6569 90° East 470 541 17,800 -3,467 Descending Atlanta Center
Thu 05:02:32 PM 33.9711 -85.5142 91° East 460 529 14,800 -3,000 Descending Atlanta Center
Thu 05:03:32 PM 33.9642 -85.3939 94° East 416 479 11,800 -2,600 Descending Atlanta Center
Thu 05:04:32 PM 33.9656 -85.2761 89° East 372 428 9,600 -1,950 Descending Atlanta Center
Thu 05:05:32 PM 33.9622 -85.1808 92° East 310 357 7,900 -850 Descending Atlanta Center
Thu 05:06:32 PM 33.9589 -85.0831 92° East 289 333 7,900 -700 Level Atlanta Center
Thu 05:08:32 PM 33.9894 -84.8981 79° East 283 326 5,800 -967 Descending Atlanta Center
Thu 05:09:32 PM 34.0111 -84.8031 75° East 275 316 5,000 -400 Descending Atlanta Center
Thu 05:10:32 PM 34.0325 -84.7206 73° East 262 302 5,000  Level Atlanta Center
Thu 05:12:32 PM 34.0728 -84.5781 90° East 224 258 5,000  Level Atlanta Center
Thu 05:15:25 PM 34.1000 -84.3500 82° East 236 272 5,000  Level Atlanta TRACON
Thu 05:16:25 PM 34.0833 -84.2833 107° East 230 265 5,000 -250 Level Atlanta TRACON
Thu 05:17:25 PM 34.0833 -84.2000 90° East 226 260 4,500 -433 Descending Atlanta TRACON
Thu 05:19:25 PM 34.0500 -84.0667 107° East 217 250 3,700 -552 Descending Atlanta TRACON
Thu 05:20:19 PM 34.0167 -84.0167 129° Southeast 211 243 2,900 -450 Descending Atlanta TRACON
Thu 05:21:25 PM 34.0167 -83.9500 90° East 203 234 2,800 -467 Descending Atlanta TRACON
Thu 05:23:19 PM 34.0000 -83.9333 140° Southeast 133 153 1,500 -684 Descending Atlanta TRACON
Thu 05:25:00 PM 33.9667 -83.9500 90° East  Level FlightAware Approximate
Thu 05:32:00 PM 33.9781 -83.9624 90° East  Level Estimated
Thu 05:33:00 PM 33.9781 -83.9624 90° East  Level Estimated

Login

Don't have an account? Register now (free) for customized features, flight alerts, and more!